sensor_id;sensor_type;location;lat;lon;timestamp;pressure;altitude;pressure_sealevel;temperature;humidity
48668;BME280;34453;52.198;5.004;2023-06-14T00:01:32;101645.81;;;17.69;100.00
48668;BME280;34453;52.198;5.004;2023-06-14T00:04:00;101650.47;;;17.67;100.00
48668;BME280;34453;52.198;5.004;2023-06-14T00:06:26;101648.47;;;17.69;100.00
48668;BME280;34453;52.198;5.004;2023-06-14T00:08:52;101641.19;;;17.71;100.00
48668;BME280;34453;52.198;5.004;2023-06-14T00:11:19;101648.31;;;17.79;100.00
48668;BME280;34453;52.198;5.004;2023-06-14T00:13:44;101640.53;;;17.77;100.00
48668;BME280;34453;52.198;5.004;2023-06-14T00:16:10;101645.00;;;17.85;100.00
48668;BME280;34453;52.198;5.004;2023-06-14T00:18:36;101648.31;;;17.87;100.00
48668;BME280;34453;52.198;5.004;2023-06-14T00:21:02;101640.03;;;17.90;100.00
48668;BME280;34453;52.198;5.004;2023-06-14T00:23:29;101651.44;;;17.99;100.00
48668;BME280;34453;52.198;5.004;2023-06-14T00:25:54;101649.09;;;18.04;100.00
48668;BME280;34453;52.198;5.004;2023-06-14T00:28:20;101649.75;;;18.06;100.00
48668;BME280;34453;52.198;5.004;2023-06-14T00:30:45;101645.28;;;17.98;100.00
48668;BME280;34453;52.198;5.004;2023-06-14T00:33:12;101646.47;;;17.96;100.00
48668;BME280;34453;52.198;5.004;2023-06-14T00:35:37;101648.78;;;17.99;100.00
48668;BME280;34453;52.198;5.004;2023-06-14T00:38:02;101646.13;;;17.99;100.00
48668;BME280;34453;52.198;5.004;2023-06-14T00:40:28;101639.50;;;18.03;100.00
48668;BME280;34453;52.198;5.004;2023-06-14T00:42:53;101639.16;;;18.06;100.00
48668;BME280;34453;52.198;5.004;2023-06-14T00:45:19;101647.59;;;18.10;100.00
48668;BME280;34453;52.198;5.004;2023-06-14T00:47:45;101647.59;;;18.10;100.00
48668;BME280;34453;52.198;5.004;2023-06-14T00:50:12;101638.28;;;18.14;100.00
48668;BME280;34453;52.198;5.004;2023-06-14T00:52:39;101646.44;;;18.12;100.00
48668;BME280;34453;52.198;5.004;2023-06-14T00:55:05;101632.19;;;18.13;100.00
48668;BME280;34453;52.198;5.004;2023-06-14T00:57:31;101638.13;;;18.15;100.00
48668;BME280;34453;52.198;5.004;2023-06-14T00:59:57;101642.59;;;18.15;100.00
48668;BME280;34453;52.198;5.004;2023-06-14T01:02:23;101648.06;;;18.13;100.00
48668;BME280;34453;52.198;5.004;2023-06-14T01:04:49;101639.97;;;18.15;100.00
48668;BME280;34453;52.198;5.004;2023-06-14T01:07:28;101650.41;;;18.08;100.00
48668;BME280;34453;52.198;5.004;2023-06-14T01:10:12;101643.78;;;18.04;100.00
48668;BME280;34453;52.198;5.004;2023-06-14T01:12:52;101638.50;;;18.04;100.00
48668;BME280;34453;52.198;5.004;2023-06-14T01:15:23;101646.97;;;17.99;100.00
48668;BME280;34453;52.198;5.004;2023-06-14T01:17:49;101644.00;;;17.94;100.00
48668;BME280;34453;52.198;5.004;2023-06-14T01:20:17;101646.81;;;17.93;100.00
48668;BME280;34453;52.198;5.004;2023-06-14T01:22:52;101639.84;;;17.92;100.00
48668;BME280;34453;52.198;5.004;2023-06-14T01:25:21;101635.56;;;17.91;100.00
48668;BME280;34453;52.198;5.004;2023-06-14T01:27:57;101636.91;;;17.87;100.00
48668;BME280;34453;52.198;5.004;2023-06-14T01:30:24;101635.56;;;17.83;100.00
48668;BME280;34453;52.198;5.004;2023-06-14T01:32:54;101636.88;;;17.78;100.00
48668;BME280;34453;52.198;5.004;2023-06-14T01:35:21;101641.19;;;17.79;100.00
48668;BME280;34453;52.198;5.004;2023-06-14T01:37:47;101634.22;;;17.78;100.00
48668;BME280;34453;52.198;5.004;2023-06-14T01:40:14;101649.28;;;17.78;100.00
48668;BME280;34453;52.198;5.004;2023-06-14T01:42:40;101653.25;;;17.74;100.00
48668;BME280;34453;52.198;5.004;2023-06-14T01:45:07;101643.84;;;17.71;100.00
48668;BME280;34453;52.198;5.004;2023-06-14T01:47:34;101651.78;;;17.71;100.00
48668;BME280;34453;52.198;5.004;2023-06-14T01:50:03;101640.53;;;17.69;100.00
48668;BME280;34453;52.198;5.004;2023-06-14T01:52:29;101641.38;;;17.70;100.00
48668;BME280;34453;52.198;5.004;2023-06-14T01:54:55;101640.53;;;17.69;100.00
48668;BME280;34453;52.198;5.004;2023-06-14T01:57:21;101649.50;;;17.68;100.00
48668;BME280;34453;52.198;5.004;2023-06-14T01:59:47;101644.19;;;17.68;100.00
48668;BME280;34453;52.198;5.004;2023-06-14T02:02:14;101644.34;;;17.67;100.00
48668;BME280;34453;52.198;5.004;2023-06-14T02:04:40;101639.56;;;17.62;100.00
48668;BME280;34453;52.198;5.004;2023-06-14T02:07:05;101648.31;;;17.63;100.00
48668;BME280;34453;52.198;5.004;2023-06-14T02:09:31;101646.84;;;17.60;100.00
48668;BME280;34453;52.198;5.004;2023-06-14T02:11:56;101636.59;;;17.57;100.00
48668;BME280;34453;52.198;5.004;2023-06-14T02:14:22;101640.88;;;17.58;100.00
48668;BME280;34453;52.198;5.004;2023-06-14T02:16:48;101631.63;;;17.54;100.00
48668;BME280;34453;52.198;5.004;2023-06-14T02:19:16;101635.28;;;17.53;100.00
48668;BME280;34453;52.198;5.004;2023-06-14T02:21:42;101638.25;;;17.58;100.00
48668;BME280;34453;52.198;5.004;2023-06-14T02:24:08;101642.22;;;17.54;100.00
48668;BME280;34453;52.198;5.004;2023-06-14T02:26:33;101645.72;;;17.46;100.00
48668;BME280;34453;52.198;5.004;2023-06-14T02:28:59;101642.75;;;17.41;100.00
48668;BME280;34453;52.198;5.004;2023-06-14T02:31:25;101634.97;;;17.31;100.00
48668;BME280;34453;52.198;5.004;2023-06-14T02:33:51;101645.22;;;17.26;100.00
48668;BME280;34453;52.198;5.004;2023-06-14T02:36:16;101656.78;;;17.25;100.00
48668;BME280;34453;52.198;5.004;2023-06-14T02:38:41;101655.13;;;17.16;100.00
48668;BME280;34453;52.198;5.004;2023-06-14T02:41:07;101653.47;;;17.07;100.00
48668;BME280;34453;52.198;5.004;2023-06-14T02:43:32;101657.94;;;17.06;100.00
48668;BME280;34453;52.198;5.004;2023-06-14T02:45:58;101660.25;;;17.01;100.00
48668;BME280;34453;52.198;5.004;2023-06-14T02:48:23;101660.09;;;16.94;100.00
48668;BME280;34453;52.198;5.004;2023-06-14T02:50:48;101667.31;;;16.84;100.00
48668;BME280;34453;52.198;5.004;2023-06-14T02:53:14;101662.63;;;16.78;100.00
48668;BME280;34453;52.198;5.004;2023-06-14T02:55:39;101656.19;;;16.72;100.00
48668;BME280;34453;52.198;5.004;2023-06-14T02:58:05;101655.34;;;16.64;100.00
48668;BME280;34453;52.198;5.004;2023-06-14T03:00:31;101649.75;;;16.67;100.00
48668;BME280;34453;52.198;5.004;2023-06-14T03:02:56;101656.00;;;16.57;100.00
48668;BME280;34453;52.198;5.004;2023-06-14T03:05:22;101669.53;;;16.63;100.00
48668;BME280;34453;52.198;5.004;2023-06-14T03:07:48;101665.91;;;16.64;100.00
48668;BME280;34453;52.198;5.004;2023-06-14T03:10:15;101663.94;;;16.66;100.00
48668;BME280;34453;52.198;5.004;2023-06-14T03:12:41;101663.09;;;16.57;100.00
48668;BME280;34453;52.198;5.004;2023-06-14T03:15:07;101670.03;;;16.58;100.00
48668;BME280;34453;52.198;5.004;2023-06-14T03:17:32;101667.56;;;16.56;100.00
48668;BME280;34453;52.198;5.004;2023-06-14T03:19:59;101667.56;;;16.56;100.00
48668;BME280;34453;52.198;5.004;2023-06-14T03:22:25;101688.66;;;16.48;100.00
48668;BME280;34453;52.198;5.004;2023-06-14T03:24:54;101680.72;;;16.48;100.00
48668;BME280;34453;52.198;5.004;2023-06-14T03:27:20;101686.34;;;16.45;100.00
48668;BME280;34453;52.198;5.004;2023-06-14T03:29:45;101681.34;;;16.42;100.00
48668;BME280;34453;52.198;5.004;2023-06-14T03:32:11;101684.00;;;16.42;100.00
48668;BME280;34453;52.198;5.004;2023-06-14T03:34:36;101690.63;;;16.46;100.00
48668;BME280;34453;52.198;5.004;2023-06-14T03:37:04;101692.59;;;16.44;100.00
48668;BME280;34453;52.198;5.004;2023-06-14T03:39:29;101701.81;;;16.40;100.00
48668;BME280;34453;52.198;5.004;2023-06-14T03:41:55;101706.94;;;16.42;100.00
48668;BME280;34453;52.198;5.004;2023-06-14T03:44:21;101704.78;;;16.37;100.00
48668;BME280;34453;52.198;5.004;2023-06-14T03:46:46;101710.25;;;16.44;100.00
48668;BME280;34453;52.198;5.004;2023-06-14T03:49:12;101710.72;;;16.39;100.00
48668;BME280;34453;52.198;5.004;2023-06-14T03:51:38;101711.69;;;16.38;100.00
48668;BME280;34453;52.198;5.004;2023-06-14T03:54:03;101713.81;;;16.26;100.00
48668;BME280;34453;52.198;5.004;2023-06-14T03:56:28;101715.56;;;16.17;100.00
48668;BME280;34453;52.198;5.004;2023-06-14T03:58:54;101719.88;;;16.19;100.00
48668;BME280;34453;52.198;5.004;2023-06-14T04:01:20;101708.25;;;16.11;100.00
48668;BME280;34453;52.198;5.004;2023-06-14T04:03:46;101719.16;;;16.08;100.00
48668;BME280;34453;52.198;5.004;2023-06-14T04:06:11;101713.03;;;16.08;100.00
48668;BME280;34453;52.198;5.004;2023-06-14T04:08:37;101722.25;;;16.04;100.00
48668;BME280;34453;52.198;5.004;2023-06-14T04:11:04;101728.41;;;16.12;100.00
48668;BME280;34453;52.198;5.004;2023-06-14T04:13:30;101729.91;;;16.15;100.00
48668;BME280;34453;52.198;5.004;2023-06-14T04:15:56;101730.13;;;16.22;100.00
48668;BME280;34453;52.198;5.004;2023-06-14T04:18:22;101739.19;;;16.27;100.00
48668;BME280;34453;52.198;5.004;2023-06-14T04:20:49;101736.75;;;16.26;100.00
48668;BME280;34453;52.198;5.004;2023-06-14T04:23:16;101734.72;;;16.20;100.00
48668;BME280;34453;52.198;5.004;2023-06-14T04:25:43;101739.00;;;16.21;100.00
48668;BME280;34453;52.198;5.004;2023-06-14T04:28:10;101740.00;;;16.20;100.00
48668;BME280;34453;52.198;5.004;2023-06-14T04:30:36;101737.03;;;16.23;100.00
48668;BME280;34453;52.198;5.004;2023-06-14T04:33:04;101734.41;;;16.23;100.00
48668;BME280;34453;52.198;5.004;2023-06-14T04:35:31;101740.72;;;16.30;100.00
48668;BME280;34453;52.198;5.004;2023-06-14T04:37:58;101738.59;;;16.33;100.00
48668;BME280;34453;52.198;5.004;2023-06-14T04:40:24;101736.81;;;16.42;100.00
48668;BME280;34453;52.198;5.004;2023-06-14T04:42:49;101739.97;;;16.46;100.00
48668;BME280;34453;52.198;5.004;2023-06-14T04:45:16;101744.31;;;16.55;100.00
48668;BME280;34453;52.198;5.004;2023-06-14T04:47:42;101738.56;;;16.60;100.00
48668;BME280;34453;52.198;5.004;2023-06-14T04:50:09;101748.16;;;16.69;100.00
48668;BME280;34453;52.198;5.004;2023-06-14T04:52:36;101740.56;;;16.66;100.00
48668;BME280;34453;52.198;5.004;2023-06-14T04:55:02;101733.47;;;16.66;100.00
48668;BME280;34453;52.198;5.004;2023-06-14T04:57:28;101740.28;;;16.77;100.00
48668;BME280;34453;52.198;5.004;2023-06-14T04:59:54;101742.09;;;16.76;100.00
48668;BME280;34453;52.198;5.004;2023-06-14T05:02:24;101743.28;;;16.82;100.00
48668;BME280;34453;52.198;5.004;2023-06-14T05:04:50;101742.31;;;16.91;100.00
48668;BME280;34453;52.198;5.004;2023-06-14T05:07:16;101744.00;;;16.92;100.00
48668;BME280;34453;52.198;5.004;2023-06-14T05:09:42;101734.41;;;16.99;100.00
48668;BME280;34453;52.198;5.004;2023-06-14T05:12:07;101739.22;;;17.04;100.00
48668;BME280;34453;52.198;5.004;2023-06-14T05:14:33;101752.63;;;17.11;100.00
48668;BME280;34453;52.198;5.004;2023-06-14T05:16:59;101748.66;;;17.15;100.00
48668;BME280;34453;52.198;5.004;2023-06-14T05:19:25;101757.09;;;17.18;100.00
48668;BME280;34453;52.198;5.004;2023-06-14T05:21:50;101753.66;;;17.26;100.00
48668;BME280;34453;52.198;5.004;2023-06-14T05:24:16;101753.66;;;17.34;100.00
48668;BME280;34453;52.198;5.004;2023-06-14T05:26:44;101748.69;;;17.39;100.00
48668;BME280;34453;52.198;5.004;2023-06-14T05:29:10;101752.34;;;17.47;100.00
48668;BME280;34453;52.198;5.004;2023-06-14T05:31:35;101748.69;;;17.56;100.00
48668;BME280;34453;52.198;5.004;2023-06-14T05:34:01;101753.31;;;17.54;100.00
48668;BME280;34453;52.198;5.004;2023-06-14T05:36:26;101749.06;;;17.61;100.00
48668;BME280;34453;52.198;5.004;2023-06-14T05:38:53;101748.88;;;17.71;100.00
48668;BME280;34453;52.198;5.004;2023-06-14T05:41:26;101749.84;;;17.78;100.00
48668;BME280;34453;52.198;5.004;2023-06-14T05:43:53;101756.66;;;17.89;100.00
48668;BME280;34453;52.198;5.004;2023-06-14T05:46:19;101761.31;;;17.95;100.00
48668;BME280;34453;52.198;5.004;2023-06-14T05:48:48;101760.28;;;18.04;100.00
48668;BME280;34453;52.198;5.004;2023-06-14T05:51:14;101759.28;;;18.13;100.00
48668;BME280;34453;52.198;5.004;2023-06-14T05:53:39;101760.59;;;18.17;100.00
48668;BME280;34453;52.198;5.004;2023-06-14T05:56:05;101768.84;;;18.22;100.00
48668;BME280;34453;52.198;5.004;2023-06-14T05:58:31;101765.22;;;18.23;100.00
48668;BME280;34453;52.198;5.004;2023-06-14T06:00:56;101767.53;;;18.35;100.00
48668;BME280;34453;52.198;5.004;2023-06-14T06:03:23;101769.31;;;18.42;100.00
48668;BME280;34453;52.198;5.004;2023-06-14T06:05:48;101770.75;;;18.53;100.00
48668;BME280;34453;52.198;5.004;2023-06-14T06:08:14;101772.91;;;18.58;100.00
48668;BME280;34453;52.198;5.004;2023-06-14T06:10:39;101776.34;;;18.67;100.00
48668;BME280;34453;52.198;5.004;2023-06-14T06:13:05;101772.00;;;18.74;100.00
48668;BME280;34453;52.198;5.004;2023-06-14T06:15:30;101774.66;;;18.82;100.00
48668;BME280;34453;52.198;5.004;2023-06-14T06:17:55;101768.34;;;18.83;100.00
48668;BME280;34453;52.198;5.004;2023-06-14T06:20:22;101774.13;;;18.95;100.00
48668;BME280;34453;52.198;5.004;2023-06-14T06:22:53;101770.25;;;19.05;100.00
48668;BME280;34453;52.198;5.004;2023-06-14T06:25:18;101782.13;;;19.10;100.00
48668;BME280;34453;52.198;5.004;2023-06-14T06:27:44;101780.97;;;19.12;100.00
48668;BME280;34453;52.198;5.004;2023-06-14T06:30:10;101783.44;;;19.14;100.00
48668;BME280;34453;52.198;5.004;2023-06-14T06:32:36;101771.78;;;19.23;100.00
48668;BME280;34453;52.198;5.004;2023-06-14T06:35:01;101779.00;;;19.37;100.00
48668;BME280;34453;52.198;5.004;2023-06-14T06:37:26;101779.13;;;19.44;100.00
48668;BME280;34453;52.198;5.004;2023-06-14T06:39:52;101785.13;;;19.61;100.00
48668;BME280;34453;52.198;5.004;2023-06-14T06:42:17;101786.75;;;19.70;100.00
48668;BME280;34453;52.198;5.004;2023-06-14T06:44:43;101789.41;;;19.70;100.00
48668;BME280;34453;52.198;5.004;2023-06-14T06:47:08;101793.72;;;19.63;100.00
48668;BME280;34453;52.198;5.004;2023-06-14T06:49:35;101796.94;;;19.81;100.00
48668;BME280;34453;52.198;5.004;2023-06-14T06:52:05;101798.88;;;19.87;100.00
48668;BME280;34453;52.198;5.004;2023-06-14T06:54:31;101801.50;;;19.87;100.00
48668;BME280;34453;52.198;5.004;2023-06-14T06:56:57;101806.59;;;19.97;100.00
48668;BME280;34453;52.198;5.004;2023-06-14T06:59:23;101808.22;;;19.98;100.00
48668;BME280;34453;52.198;5.004;2023-06-14T07:01:49;101812.47;;;20.07;100.00
48668;BME280;34453;52.198;5.004;2023-06-14T07:04:14;101809.72;;;20.16;100.00
48668;BME280;34453;52.198;5.004;2023-06-14T07:06:41;101809.38;;;20.34;100.00
48668;BME280;34453;52.198;5.004;2023-06-14T07:09:07;101804.00;;;20.42;100.00
48668;BME280;34453;52.198;5.004;2023-06-14T07:11:38;101812.97;;;20.41;100.00
48668;BME280;34453;52.198;5.004;2023-06-14T07:14:04;101810.22;;;20.49;100.00
48668;BME280;34453;52.198;5.004;2023-06-14T07:16:29;101819.44;;;20.61;100.00
48668;BME280;34453;52.198;5.004;2023-06-14T07:18:55;101828.97;;;20.70;100.00
48668;BME280;34453;52.198;5.004;2023-06-14T07:21:20;101824.16;;;20.81;100.00
48668;BME280;34453;52.198;5.004;2023-06-14T07:23:46;101819.16;;;20.86;100.00
48668;BME280;34453;52.198;5.004;2023-06-14T07:26:11;101823.97;;;20.97;100.00
48668;BME280;34453;52.198;5.004;2023-06-14T07:28:36;101827.88;;;21.16;100.00
48668;BME280;34453;52.198;5.004;2023-06-14T07:31:02;101825.94;;;21.25;100.00
48668;BME280;34453;52.198;5.004;2023-06-14T07:33:28;101831.72;;;21.28;100.00
48668;BME280;34453;52.198;5.004;2023-06-14T07:35:53;101837.34;;;21.40;100.00
48668;BME280;34453;52.198;5.004;2023-06-14T07:38:18;101833.97;;;21.46;100.00
48668;BME280;34453;52.198;5.004;2023-06-14T07:40:44;101839.44;;;21.60;100.00
48668;BME280;34453;52.198;5.004;2023-06-14T07:43:09;101838.28;;;21.69;100.00
48668;BME280;34453;52.198;5.004;2023-06-14T07:45:35;101833.09;;;21.82;100.00
48668;BME280;34453;52.198;5.004;2023-06-14T07:48:00;101832.81;;;21.99;100.00
48668;BME280;34453;52.198;5.004;2023-06-14T07:50:26;101842.06;;;22.03;100.00
48668;BME280;34453;52.198;5.004;2023-06-14T07:52:51;101843.47;;;21.99;100.00
48668;BME280;34453;52.198;5.004;2023-06-14T07:55:17;101845.88;;;21.93;100.00
48668;BME280;34453;52.198;5.004;2023-06-14T07:57:42;101843.19;;;22.15;100.00
48668;BME280;34453;52.198;5.004;2023-06-14T08:00:09;101846.03;;;22.13;100.00
48668;BME280;34453;52.198;5.004;2023-06-14T08:02:39;101849.03;;;22.25;100.00
48668;BME280;34453;52.198;5.004;2023-06-14T08:05:05;101853.31;;;22.48;100.00
48668;BME280;34453;52.198;5.004;2023-06-14T08:07:30;101856.84;;;22.55;100.00
48668;BME280;34453;52.198;5.004;2023-06-14T08:09:55;101844.53;;;22.61;100.00
48668;BME280;34453;52.198;5.004;2023-06-14T08:12:21;101848.94;;;22.75;100.00
48668;BME280;34453;52.198;5.004;2023-06-14T08:14:47;101840.63;;;22.98;100.00
48668;BME280;34453;52.198;5.004;2023-06-14T08:17:12;101839.66;;;23.06;100.00
48668;BME280;34453;52.198;5.004;2023-06-14T08:19:38;101839.69;;;23.12;100.00
48668;BME280;34453;52.198;5.004;2023-06-14T08:22:04;101847.47;;;23.14;100.00
48668;BME280;34453;52.198;5.004;2023-06-14T08:24:29;101847.91;;;23.17;100.00
48668;BME280;34453;52.198;5.004;2023-06-14T08:26:54;101853.09;;;23.26;100.00
48668;BME280;34453;52.198;5.004;2023-06-14T08:29:21;101856.59;;;23.40;100.00
48668;BME280;34453;52.198;5.004;2023-06-14T08:31:47;101851.25;;;23.40;100.00
48668;BME280;34453;52.198;5.004;2023-06-14T08:34:13;101848.78;;;23.38;100.00
48668;BME280;34453;52.198;5.004;2023-06-14T08:36:38;101850.47;;;23.46;100.00
48668;BME280;34453;52.198;5.004;2023-06-14T08:39:03;101856.44;;;23.48;100.00
48668;BME280;34453;52.198;5.004;2023-06-14T08:41:29;101852.72;;;23.49;100.00
48668;BME280;34453;52.198;5.004;2023-06-14T08:43:56;101851.50;;;23.65;100.00
48668;BME280;34453;52.198;5.004;2023-06-14T08:46:22;101857.03;;;23.56;100.00
48668;BME280;34453;52.198;5.004;2023-06-14T08:48:54;101835.91;;;23.62;100.00
48668;BME280;34453;52.198;5.004;2023-06-14T08:51:22;101844.34;;;23.85;100.00
48668;BME280;34453;52.198;5.004;2023-06-14T08:53:53;101851.97;;;23.95;100.00
48668;BME280;34453;52.198;5.004;2023-06-14T08:56:25;101842.53;;;24.19;100.00
48668;BME280;34453;52.198;5.004;2023-06-14T08:58:51;101852.16;;;24.33;100.00
48668;BME280;34453;52.198;5.004;2023-06-14T09:01:17;101841.03;;;24.50;100.00
48668;BME280;34453;52.198;5.004;2023-06-14T09:03:44;101844.88;;;24.74;100.00
48668;BME280;34453;52.198;5.004;2023-06-14T09:06:10;101854.94;;;24.78;100.00
48668;BME280;34453;52.198;5.004;2023-06-14T09:08:47;101856.16;;;24.89;100.00
48668;BME280;34453;52.198;5.004;2023-06-14T09:11:15;101853.31;;;24.77;100.00
48668;BME280;34453;52.198;5.004;2023-06-14T09:13:41;101855.78;;;24.79;100.00
48668;BME280;34453;52.198;5.004;2023-06-14T09:16:07;101854.94;;;24.78;100.00
48668;BME280;34453;52.198;5.004;2023-06-14T09:18:37;101861.53;;;24.82;100.00
48668;BME280;34453;52.198;5.004;2023-06-14T09:21:05;101854.28;;;24.90;100.00
48668;BME280;34453;52.198;5.004;2023-06-14T09:23:33;101856.56;;;24.93;100.00
48668;BME280;34453;52.198;5.004;2023-06-14T09:26:01;101860.03;;;25.00;100.00
48668;BME280;34453;52.198;5.004;2023-06-14T09:28:27;101858.50;;;25.17;100.00
48668;BME280;34453;52.198;5.004;2023-06-14T09:30:53;101855.88;;;25.04;100.00
48668;BME280;34453;52.198;5.004;2023-06-14T09:33:18;101858.56;;;25.04;100.00
48668;BME280;34453;52.198;5.004;2023-06-14T09:35:54;101862.19;;;25.16;100.00
48668;BME280;34453;52.198;5.004;2023-06-14T09:38:20;101858.88;;;25.28;100.00
48668;BME280;34453;52.198;5.004;2023-06-14T09:40:45;101863.84;;;25.24;100.00
48668;BME280;34453;52.198;5.004;2023-06-14T09:43:11;101865.31;;;25.13;100.00
48668;BME280;34453;52.198;5.004;2023-06-14T09:45:37;101871.88;;;25.24;100.00
48668;BME280;34453;52.198;5.004;2023-06-14T09:48:06;101868.91;;;25.39;100.00
48668;BME280;34453;52.198;5.004;2023-06-14T09:50:33;101866.16;;;25.52;100.00
48668;BME280;34453;52.198;5.004;2023-06-14T09:53:07;101863.72;;;25.76;100.00
48668;BME280;34453;52.198;5.004;2023-06-14T09:55:36;101862.88;;;25.50;100.00
48668;BME280;34453;52.198;5.004;2023-06-14T09:58:08;101858.16;;;25.77;100.00
48668;BME280;34453;52.198;5.004;2023-06-14T10:00:35;101866.06;;;25.97;100.00
48668;BME280;34453;52.198;5.004;2023-06-14T10:03:19;101862.03;;;26.13;100.00
48668;BME280;34453;52.198;5.004;2023-06-14T10:05:48;101858.69;;;26.36;100.00
48668;BME280;34453;52.198;5.004;2023-06-14T10:08:20;101858.88;;;26.41;100.00
48668;BME280;34453;52.198;5.004;2023-06-14T10:10:48;101856.03;;;26.55;100.00
48668;BME280;34453;52.198;5.004;2023-06-14T10:13:14;101856.75;;;26.43;100.00
48668;BME280;34453;52.198;5.004;2023-06-14T10:18:48;101854.41;;;26.72;100.00
48668;BME280;34453;52.198;5.004;2023-06-14T10:24:17;101848.38;;;26.77;100.00
48668;BME280;34453;52.198;5.004;2023-06-14T10:26:51;101857.84;;;26.79;100.00
48668;BME280;34453;52.198;5.004;2023-06-14T10:29:17;101850.22;;;26.76;100.00
48668;BME280;34453;52.198;5.004;2023-06-14T10:31:50;101852.03;;;26.82;100.00
48668;BME280;34453;52.198;5.004;2023-06-14T10:34:26;101842.78;;;26.78;100.00
48668;BME280;34453;52.198;5.004;2023-06-14T10:37:12;101855.16;;;26.98;100.00
48668;BME280;34453;52.198;5.004;2023-06-14T10:39:43;101851.31;;;27.24;100.00
48668;BME280;34453;52.198;5.004;2023-06-14T10:42:11;101849.56;;;27.29;100.00
48668;BME280;34453;52.198;5.004;2023-06-14T10:47:06;101848.94;;;27.46;100.00
48668;BME280;34453;52.198;5.004;2023-06-14T10:49:45;101850.59;;;27.59;100.00
48668;BME280;34453;52.198;5.004;2023-06-14T10:52:15;101860.41;;;27.53;100.00
48668;BME280;34453;52.198;5.004;2023-06-14T10:57:37;101865.56;;;27.66;100.00
48668;BME280;34453;52.198;5.004;2023-06-14T11:00:05;101859.81;;;27.51;100.00
48668;BME280;34453;52.198;5.004;2023-06-14T11:02:49;101864.28;;;27.69;100.00
48668;BME280;34453;52.198;5.004;2023-06-14T11:05:23;101864.91;;;27.83;100.00
48668;BME280;34453;52.198;5.004;2023-06-14T11:12:59;101867.59;;;27.83;100.00
48668;BME280;34453;52.198;5.004;2023-06-14T11:15:31;101861.91;;;28.03;100.00
48668;BME280;34453;52.198;5.004;2023-06-14T11:17:58;101859.44;;;28.01;100.00
48668;BME280;34453;52.198;5.004;2023-06-14T11:20:26;101852.44;;;28.00;100.00
48668;BME280;34453;52.198;5.004;2023-06-14T11:22:52;101851.03;;;28.09;100.00
48668;BME280;34453;52.198;5.004;2023-06-14T11:25:18;101847.66;;;28.26;100.00
48668;BME280;34453;52.198;5.004;2023-06-14T11:27:44;101841.31;;;28.32;100.00
48668;BME280;34453;52.198;5.004;2023-06-14T11:30:10;101840.38;;;28.38;100.00
48668;BME280;34453;52.198;5.004;2023-06-14T11:32:37;101848.81;;;28.54;100.00
48668;BME280;34453;52.198;5.004;2023-06-14T11:35:03;101849.28;;;28.50;100.00
48668;BME280;34453;52.198;5.004;2023-06-14T11:37:30;101842.34;;;28.66;100.00
48668;BME280;34453;52.198;5.004;2023-06-14T11:39:57;101842.09;;;28.68;100.00
48668;BME280;34453;52.198;5.004;2023-06-14T11:42:24;101842.56;;;28.65;100.00
48668;BME280;34453;52.198;5.004;2023-06-14T11:44:49;101836.59;;;28.63;95.63
48668;BME280;34453;52.198;5.004;2023-06-14T11:47:15;101846.47;;;28.57;97.76
48668;BME280;34453;52.198;5.004;2023-06-14T11:49:41;101829.38;;;28.51;100.00
48668;BME280;34453;52.198;5.004;2023-06-14T11:52:07;101834.22;;;28.78;100.00
48668;BME280;34453;52.198;5.004;2023-06-14T11:54:33;101832.03;;;29.04;100.00
48668;BME280;34453;52.198;5.004;2023-06-14T11:56:59;101834.69;;;29.16;100.00
48668;BME280;34453;52.198;5.004;2023-06-14T11:59:25;101823.84;;;29.10;100.00
48668;BME280;34453;52.198;5.004;2023-06-14T12:01:53;101838.66;;;28.84;100.00
48668;BME280;34453;52.198;5.004;2023-06-14T12:04:29;101839.31;;;28.63;100.00
48668;BME280;34453;52.198;5.004;2023-06-14T12:06:55;101835.16;;;28.72;100.00
48668;BME280;34453;52.198;5.004;2023-06-14T12:09:22;101828.38;;;29.10;100.00
48668;BME280;34453;52.198;5.004;2023-06-14T12:11:49;101828.28;;;29.33;100.00
48668;BME280;34453;52.198;5.004;2023-06-14T12:14:15;101830.97;;;29.33;100.00
48668;BME280;34453;52.198;5.004;2023-06-14T12:16:42;101828.19;;;29.28;100.00
48668;BME280;34453;52.198;5.004;2023-06-14T12:19:15;101830.81;;;29.40;100.00
48668;BME280;34453;52.198;5.004;2023-06-14T12:21:41;101828.00;;;29.64;100.00
48668;BME280;34453;52.198;5.004;2023-06-14T12:24:07;101825.03;;;29.48;100.00
48668;BME280;34453;52.198;5.004;2023-06-14T12:26:33;101828.38;;;29.55;100.00
48668;BME280;34453;52.198;5.004;2023-06-14T12:29:05;101819.44;;;29.84;100.00
48668;BME280;34453;52.198;5.004;2023-06-14T12:31:30;101825.88;;;29.83;100.00
48668;BME280;34453;52.198;5.004;2023-06-14T12:33:55;101822.31;;;29.65;100.00
48668;BME280;34453;52.198;5.004;2023-06-14T12:36:21;101826.59;;;29.44;100.00
48668;BME280;34453;52.198;5.004;2023-06-14T12:38:46;101835.56;;;29.67;100.00
48668;BME280;34453;52.198;5.004;2023-06-14T12:41:12;101835.75;;;29.94;100.00
48668;BME280;34453;52.198;5.004;2023-06-14T12:43:39;101830.06;;;29.90;96.06
48668;BME280;34453;52.198;5.004;2023-06-14T12:46:05;101841.06;;;29.55;100.00
48668;BME280;34453;52.198;5.004;2023-06-14T12:48:31;101833.44;;;29.52;96.53
48668;BME280;34453;52.198;5.004;2023-06-14T12:50:58;101834.94;;;29.60;100.00
48668;BME280;34453;52.198;5.004;2023-06-14T12:53:23;101842.28;;;29.98;100.00
48668;BME280;34453;52.198;5.004;2023-06-14T12:55:49;101835.78;;;29.77;97.69